Cpo Baltimore — A8VD9 — position and weather

sailwx.info

Track history (hours):
 
Tides and Currents Weather Stations Pressure Air Temp Water Temp Dewpoint Dewpoint Depression Visibility Wind Speed Wind Dir Waves Ship Positions

Cpo Baltimore

Last reported at 2018-Jul-19 21:10 UTC. Time now 2018-Jul-19 22:58 UTC.
Position N 52°44' W 005°13'.

Length 262 m; draft 9.5 m.

Type: Ship (hazmat cat A). MMSI: 636091990.

Date/timePositionNaut miles runAvg speedWind from/ knotsBaromVisibWave heightAir tempDewpointWater temp
2018-Jul-19 21:10N 52°44' W 005°13'844.8
2018-Jul-19 21:00N 52°36' W 005°12'692.9 210 / 61018.2 5.4 17.411.713.1
2018-Jul-19 20:56N 52°42' W 005°15'4 9.9
2018-Jul-19 20:30N 52°38' W 005°17'10 9.8
2018-Jul-19 19:31N 52°29' W 005°23'1 9.4
2018-Jul-19 19:22N 52°27' W 005°23'6 9.7
2018-Jul-19 18:43N 52°22' W 005°27'3 9.7
2018-Jul-19 18:23N 52°19' W 005°29'716.6
2018-Jul-19 18:00N 52°12' W 005°30'358.9 250 / 61018.710.8 19.515.613.0
2018-Jul-19 17:57N 52°14' W 005°32'510.3
2018-Jul-19 17:30N 52°10' W 005°34'510.9
2018-Jul-19 17:00N 52°05' W 005°37'510.9
2018-Jul-19 16:30N 51°60' W 005°40'611.8
2018-Jul-19 16:00N 51°54' W 005°43'612.0
2018-Jul-19 15:30N 51°49' W 005°47'612.7
2018-Jul-19 15:00N 51°43' W 005°49'612.1
2018-Jul-19 14:30N 51°37' W 005°52'1212.1
2018-Jul-19 13:30N 51°25' W 005°58'612.0
2018-Jul-19 13:01N 51°20' W 006°01'5112.6
2018-Jul-19 09:00N 50°30' W 006°18'6321.0 300 / 61019.810.8 21.110.619.3
2018-Jul-19 06:00N 49°30' W 006°48'10111.2 330 / 121020.510.8 18.513.620.3
2018-Jul-18 21:00N 47°54' W 007°36'3812.7 360 / 121019.7 5.4 20.113.819.7
2018-Jul-18 18:00N 47°18' W 007°54'11312.6 310 / 61019.310.8 21.015.519.8
2018-Jul-18 09:00N 45°30' W 008°42'3812.7 020 / 71018.010.8 20.812.519.8
2018-Jul-18 06:00N 44°54' W 009°00'11212.5 020 / 181016.810.8 21.014.719.0
2018-Jul-17 21:00N 43°06' W 009°42'14412.0 360 / 191017.610.8 19.614.016.7
2018-Jul-17 09:00N 40°42' W 009°48'5418.0 350 / 201019.410.8 20.715.019.3
2018-Jul-17 06:00N 39°48' W 009°48'2 3.2 350 / 171018.610.8 20.516.319.8
2018-Jul-17 05:31N 39°47' W 009°50'012.7
2018-Jul-17 05:30N 39°47' W 009°50'612.8
2018-Jul-17 05:00N 39°41' W 009°50'812.6
2018-Jul-17 04:20N 39°32' W 009°50'412.9
2018-Jul-17 03:59N 39°28' W 009°50'612.9
2018-Jul-17 03:30N 39°22' W 009°50'713.1
2018-Jul-17 03:01N 39°15' W 009°51'713.0
2018-Jul-17 02:30N 39°09' W 009°51'612.8
2018-Jul-17 02:00N 39°02' W 009°51'613.0
2018-Jul-17 01:31N 38°56' W 009°51'612.9
2018-Jul-17 01:01N 38°49' W 009°51'713.3
2018-Jul-17 00:30N 38°43' W 009°50'1312.6
2018-Jul-16 23:31N 38°30' W 009°48'612.6
2018-Jul-16 23:00N 38°24' W 009°46'612.7
2018-Jul-16 22:30N 38°18' W 009°44'612.7
2018-Jul-16 22:00N 38°12' W 009°42'612.5
2018-Jul-16 21:30N 38°06' W 009°40'612.5
2018-Jul-16 21:01N 37°60' W 009°38'611.8
2018-Jul-16 20:31N 37°54' W 009°37'611.6
2018-Jul-16 20:00N 37°48' W 009°35'611.4
2018-Jul-16 19:31N 37°43' W 009°33'611.7
2018-Jul-16 19:01N 37°37' W 009°32'611.7
2018-Jul-16 18:30N 37°31' W 009°30'611.6
2018-Jul-16 18:00N 37°26' W 009°29'1111.6
2018-Jul-16 17:04N 37°15' W 009°26'112.0
2018-Jul-16 16:57N 37°14' W 009°26'612.5
2018-Jul-16 16:30N 37°08' W 009°24'612.4
2018-Jul-16 16:00N 37°02' W 009°22'612.3
2018-Jul-16 15:31N 36°56' W 009°20'2611.6
2018-Jul-16 13:14N 36°41' W 008°54'312.2
2018-Jul-16 13:00N 36°40' W 008°50'612.3
2018-Jul-16 12:29N 36°38' W 008°43'712.5
2018-Jul-16 11:55N 36°35' W 008°34'8614.6
2018-Jul-16 06:00N 36°06' W 006°54'6212.5 330 / 101020.810.8 21.516.921.3
2018-Jul-16 01:05N 35°57' W 005°39'114.0
2018-Jul-16 01:00N 35°57' W 005°37'613.2
2018-Jul-16 00:30N 35°59' W 005°30'612.0
2018-Jul-16 00:00N 36°01' W 005°23'510.6
2018-Jul-15 23:30N 36°02' W 005°16'510.2
2018-Jul-15 23:00N 36°03' W 005°10'29312.7
2018-Jul-15 00:00N 37°00' E 000°48'2915.7 300 / 21015.9 5.4 25.022.225.0
2018-Jul-14 22:10N 37°09' E 001°22'213.1
2018-Jul-14 22:00N 37°10' E 001°24'612.9
2018-Jul-14 21:31N 37°11' E 001°32'712.8
2018-Jul-14 21:00N 37°13' E 001°40'613.0
2018-Jul-14 20:31N 37°14' E 001°48'713.2
2018-Jul-14 20:00N 37°16' E 001°56'713.2
2018-Jul-14 19:30N 37°18' E 002°04'713.5
2018-Jul-14 19:00N 37°19' E 002°12'713.2
2018-Jul-14 18:30N 37°21' E 002°20'713.0
2018-Jul-14 18:00N 37°23' E 002°28'6500.3
2018-Jul-14 18:00N 37°18' E 002°24'1123.4 110 / 31016.5 5.4 28.722.424.4
2018-Jul-14 17:30N 37°24' E 002°36'612.7
2018-Jul-14 17:00N 37°26' E 002°44'612.7
2018-Jul-14 16:30N 37°27' E 002°52'612.7
2018-Jul-14 16:00N 37°29' E 002°59'812.9
2018-Jul-14 15:23N 37°31' E 003°09'712.9
2018-Jul-14 14:53N 37°33' E 003°17'1212.8
2018-Jul-14 13:59N 37°35' E 003°31'713.4
2018-Jul-14 13:26N 37°37' E 003°40'613.4
2018-Jul-14 13:01N 37°38' E 003°47'1113.1
2018-Jul-14 12:10N 37°41' E 004°01'213.2
2018-Jul-14 12:01N 37°41' E 004°03'8413.9
2018-Jul-14 06:00N 38°30' E 005°30'7612.7 240 / 211014.2 5.4 29.322.024.9
2018-Jul-14 00:00N 38°18' E 007°06'1414.1 080 / 141013.5 5.4 25.022.225.0
2018-Jul-13 23:02N 38°21' E 007°23'1113.6
2018-Jul-13 22:15N 38°24' E 007°36'1113.6
2018-Jul-13 21:25N 38°27' E 007°50'713.4
2018-Jul-13 20:56N 38°28' E 007°58'613.1
2018-Jul-13 20:30N 38°30' E 008°05'712.9
2018-Jul-13 20:00N 38°32' E 008°13'612.9
2018-Jul-13 19:31N 38°33' E 008°21'612.9
2018-Jul-13 19:00N 38°35' E 008°29'612.6
2018-Jul-13 18:30N 38°36' E 008°36'712.8
2018-Jul-13 18:00N 38°38' E 008°45'612.8
2018-Jul-13 17:30N 38°39' E 008°53'1512.8
2018-Jul-13 16:21N 38°45' E 009°10'1012.7
2018-Jul-13 15:33N 38°50' E 009°22'112.9
2018-Jul-13 15:30N 38°50' E 009°22'3613.3
2018-Jul-13 12:49N 39°04' E 010°04'413.2
2018-Jul-13 12:30N 39°05' E 010°09'713.2
2018-Jul-13 12:00N 39°08' E 010°17'4384.2
2018-Jul-13 12:00N 39°06' E 010°12'1122.3 070 / 141016.7 5.4 28.025.326.0
2018-Jul-13 11:30N 39°10' E 010°25'1312.6
2018-Jul-13 10:29N 39°16' E 010°40'612.7
2018-Jul-13 10:00N 39°18' E 010°47'1312.8
2018-Jul-13 09:02N 39°23' E 011°02'112.8
2018-Jul-13 08:59N 39°23' E 011°03'913.5
2018-Jul-13 08:20N 39°27' E 011°13'613.6
2018-Jul-13 07:54N 39°29' E 011°20'615.4
2018-Jul-13 07:30N 39°32' E 011°27'1622.0
2018-Jul-13 06:45N 39°38' E 011°47'521.4
2018-Jul-13 06:30N 39°40' E 011°53'918.4
2018-Jul-13 06:00N 39°44' E 012°04'4233.4
2018-Jul-13 06:00N 39°42' E 012°00'1021.3 100 / 101016.710.8 29.319.026.5
2018-Jul-13 05:30N 39°46' E 012°12'612.9
2018-Jul-13 05:01N 39°49' E 012°20'713.0
2018-Jul-13 04:30N 39°52' E 012°28'713.1
2018-Jul-13 04:00N 39°54' E 012°36'612.9
2018-Jul-13 03:30N 39°57' E 012°43'612.9
2018-Jul-13 03:01N 39°59' E 012°51'9505.9
2018-Jul-13 03:00N 39°54' E 012°42'1530.6 120 / 21016.310.8 24.521.426.5
2018-Jul-13 02:30N 40°02' E 012°58'712.9
2018-Jul-13 01:58N 40°05' E 013°07'1412.9
2018-Jul-13 00:51N 40°10' E 013°24'513.0
2018-Jul-13 00:30N 40°12' E 013°29'713.2
2018-Jul-13 00:00N 40°15' E 013°37'713.2
2018-Jul-12 23:29N 40°17' E 013°46'713.4
2018-Jul-12 23:00N 40°20' E 013°54'713.2
2018-Jul-12 22:30N 40°23' E 014°02'713.2
2018-Jul-12 22:00N 40°25' E 014°09'713.4
2018-Jul-12 21:30N 40°28' E 014°18'713.3
2018-Jul-12 21:00N 40°29' E 014°26'612.9
2018-Jul-12 20:30N 40°31' E 014°34'713.1
2018-Jul-12 20:00N 40°36' E 014°40'2 0.1
2018-Jul-12 03:39N 40°36' E 014°43'212.2
2018-Jul-12 03:31N 40°34' E 014°43'714.8
2018-Jul-12 03:00N 40°27' E 014°44'815.4
2018-Jul-12 02:30N 40°19' E 014°44'815.9
2018-Jul-12 02:00N 40°11' E 014°46'11516.0
2018-Jul-11 18:47N 38°24' E 015°40'516.1
2018-Jul-11 18:30N 38°19' E 015°42'713.1
2018-Jul-11 17:58N 38°13' E 015°37'715.6
2018-Jul-11 17:30N 38°06' E 015°36'917.1
2018-Jul-11 17:00N 37°58' E 015°38'816.8
2018-Jul-11 16:30N 37°51' E 015°45'916.9
2018-Jul-11 16:00N 37°47' E 015°54'917.0
2018-Jul-11 15:27N 37°42' E 016°04'16217.1
2018-Jul-11 06:00N 36°54' E 019°18'29 9.8 240 / 51014.610.8 26.021.024.4
2018-Jul-11 03:00N 36°48' E 019°54'16617.8 300 / 81013.927.0 24.518.624.0
2018-Jul-10 17:40N 36°45' E 023°21'318.0
2018-Jul-10 17:30N 36°48' E 023°22'917.8
2018-Jul-10 16:59N 36°57' E 023°24'1717.7
2018-Jul-10 15:59N 37°10' E 023°39'1017.8
2018-Jul-10 15:24N 37°18' E 023°48'1417.6
2018-Jul-10 14:36N 37°28' E 024°00'2817.7
2018-Jul-10 13:00N 37°48' E 024°25'  
Track history (hours):
 
Tides and Currents Weather Stations Pressure Air Temp Water Temp Dewpoint Dewpoint Depression Visibility Wind Speed Wind Dir Waves Ship Positions

Cpo Baltimore

Last reported at 2018-Jul-19 21:10 UTC. Time now 2018-Jul-19 22:58 UTC.
Position N 52°44' W 005°13'.

Length 262 m; draft 9.5 m.

Type: Ship (hazmat cat A). MMSI: 636091990.

Date/timePositionNaut miles runAvg speedWind from/ knotsBaromVisibWave heightAir tempDewpointWater temp
2018-Jul-19 21:10N 52°44' W 005°13'844.8
2018-Jul-19 21:00N 52°36' W 005°12'692.9 210 / 61018.2 5.4 17.411.713.1
2018-Jul-19 20:56N 52°42' W 005°15'4 9.9
2018-Jul-19 20:30N 52°38' W 005°17'10 9.8
2018-Jul-19 19:31N 52°29' W 005°23'1 9.4
2018-Jul-19 19:22N 52°27' W 005°23'6 9.7
2018-Jul-19 18:43N 52°22' W 005°27'3 9.7
2018-Jul-19 18:23N 52°19' W 005°29'716.6
2018-Jul-19 18:00N 52°12' W 005°30'358.9 250 / 61018.710.8 19.515.613.0
2018-Jul-19 17:57N 52°14' W 005°32'510.3
2018-Jul-19 17:30N 52°10' W 005°34'510.9
2018-Jul-19 17:00N 52°05' W 005°37'510.9
2018-Jul-19 16:30N 51°60' W 005°40'611.8
2018-Jul-19 16:00N 51°54' W 005°43'612.0
2018-Jul-19 15:30N 51°49' W 005°47'612.7
2018-Jul-19 15:00N 51°43' W 005°49'612.1
2018-Jul-19 14:30N 51°37' W 005°52'1212.1
2018-Jul-19 13:30N 51°25' W 005°58'612.0
2018-Jul-19 13:01N 51°20' W 006°01'5112.6
2018-Jul-19 09:00N 50°30' W 006°18'6321.0 300 / 61019.810.8 21.110.619.3
2018-Jul-19 06:00N 49°30' W 006°48'10111.2 330 / 121020.510.8 18.513.620.3
2018-Jul-18 21:00N 47°54' W 007°36'3812.7 360 / 121019.7 5.4 20.113.819.7
2018-Jul-18 18:00N 47°18' W 007°54'11312.6 310 / 61019.310.8 21.015.519.8
2018-Jul-18 09:00N 45°30' W 008°42'3812.7 020 / 71018.010.8 20.812.519.8
2018-Jul-18 06:00N 44°54' W 009°00'11212.5 020 / 181016.810.8 21.014.719.0
2018-Jul-17 21:00N 43°06' W 009°42'14412.0 360 / 191017.610.8 19.614.016.7
2018-Jul-17 09:00N 40°42' W 009°48'5418.0 350 / 201019.410.8 20.715.019.3
2018-Jul-17 06:00N 39°48' W 009°48'2 3.2 350 / 171018.610.8 20.516.319.8
2018-Jul-17 05:31N 39°47' W 009°50'012.7
2018-Jul-17 05:30N 39°47' W 009°50'612.8
2018-Jul-17 05:00N 39°41' W 009°50'812.6
2018-Jul-17 04:20N 39°32' W 009°50'412.9
2018-Jul-17 03:59N 39°28' W 009°50'612.9
2018-Jul-17 03:30N 39°22' W 009°50'713.1
2018-Jul-17 03:01N 39°15' W 009°51'713.0
2018-Jul-17 02:30N 39°09' W 009°51'612.8
2018-Jul-17 02:00N 39°02' W 009°51'613.0
2018-Jul-17 01:31N 38°56' W 009°51'612.9
2018-Jul-17 01:01N 38°49' W 009°51'713.3
2018-Jul-17 00:30N 38°43' W 009°50'1312.6
2018-Jul-16 23:31N 38°30' W 009°48'612.6
2018-Jul-16 23:00N 38°24' W 009°46'612.7
2018-Jul-16 22:30N 38°18' W 009°44'612.7
2018-Jul-16 22:00N 38°12' W 009°42'612.5
2018-Jul-16 21:30N 38°06' W 009°40'612.5
2018-Jul-16 21:01N 37°60' W 009°38'611.8
2018-Jul-16 20:31N 37°54' W 009°37'611.6
2018-Jul-16 20:00N 37°48' W 009°35'611.4
2018-Jul-16 19:31N 37°43' W 009°33'611.7
2018-Jul-16 19:01N 37°37' W 009°32'611.7
2018-Jul-16 18:30N 37°31' W 009°30'611.6
2018-Jul-16 18:00N 37°26' W 009°29'1111.6
2018-Jul-16 17:04N 37°15' W 009°26'112.0
2018-Jul-16 16:57N 37°14' W 009°26'612.5
2018-Jul-16 16:30N 37°08' W 009°24'612.4
2018-Jul-16 16:00N 37°02' W 009°22'612.3
2018-Jul-16 15:31N 36°56' W 009°20'2611.6
2018-Jul-16 13:14N 36°41' W 008°54'312.2
2018-Jul-16 13:00N 36°40' W 008°50'612.3
2018-Jul-16 12:29N 36°38' W 008°43'712.5
2018-Jul-16 11:55N 36°35' W 008°34'8614.6
2018-Jul-16 06:00N 36°06' W 006°54'6212.5 330 / 101020.810.8 21.516.921.3
2018-Jul-16 01:05N 35°57' W 005°39'114.0
2018-Jul-16 01:00N 35°57' W 005°37'613.2
2018-Jul-16 00:30N 35°59' W 005°30'612.0
2018-Jul-16 00:00N 36°01' W 005°23'510.6
2018-Jul-15 23:30N 36°02' W 005°16'510.2
2018-Jul-15 23:00N 36°03' W 005°10'29312.7
2018-Jul-15 00:00N 37°00' E 000°48'2915.7 300 / 21015.9 5.4 25.022.225.0
2018-Jul-14 22:10N 37°09' E 001°22'213.1
2018-Jul-14 22:00N 37°10' E 001°24'612.9
2018-Jul-14 21:31N 37°11' E 001°32'712.8
2018-Jul-14 21:00N 37°13' E 001°40'613.0
2018-Jul-14 20:31N 37°14' E 001°48'713.2
2018-Jul-14 20:00N 37°16' E 001°56'713.2
2018-Jul-14 19:30N 37°18' E 002°04'713.5
2018-Jul-14 19:00N 37°19' E 002°12'713.2
2018-Jul-14 18:30N 37°21' E 002°20'713.0
2018-Jul-14 18:00N 37°23' E 002°28'6500.3
2018-Jul-14 18:00N 37°18' E 002°24'1123.4 110 / 31016.5 5.4 28.722.424.4
2018-Jul-14 17:30N 37°24' E 002°36'612.7
2018-Jul-14 17:00N 37°26' E 002°44'612.7
2018-Jul-14 16:30N 37°27' E 002°52'612.7
2018-Jul-14 16:00N 37°29' E 002°59'812.9
2018-Jul-14 15:23N 37°31' E 003°09'712.9
2018-Jul-14 14:53N 37°33' E 003°17'1212.8
2018-Jul-14 13:59N 37°35' E 003°31'713.4
2018-Jul-14 13:26N 37°37' E 003°40'613.4
2018-Jul-14 13:01N 37°38' E 003°47'1113.1
2018-Jul-14 12:10N 37°41' E 004°01'213.2
2018-Jul-14 12:01N 37°41' E 004°03'8413.9
2018-Jul-14 06:00N 38°30' E 005°30'7612.7 240 / 211014.2 5.4 29.322.024.9
2018-Jul-14 00:00N 38°18' E 007°06'1414.1 080 / 141013.5 5.4 25.022.225.0
2018-Jul-13 23:02N 38°21' E 007°23'1113.6
2018-Jul-13 22:15N 38°24' E 007°36'1113.6
2018-Jul-13 21:25N 38°27' E 007°50'713.4
2018-Jul-13 20:56N 38°28' E 007°58'613.1
2018-Jul-13 20:30N 38°30' E 008°05'712.9
2018-Jul-13 20:00N 38°32' E 008°13'612.9
2018-Jul-13 19:31N 38°33' E 008°21'612.9
2018-Jul-13 19:00N 38°35' E 008°29'612.6
2018-Jul-13 18:30N 38°36' E 008°36'712.8
2018-Jul-13 18:00N 38°38' E 008°45'612.8
2018-Jul-13 17:30N 38°39' E 008°53'1512.8
2018-Jul-13 16:21N 38°45' E 009°10'1012.7
2018-Jul-13 15:33N 38°50' E 009°22'112.9
2018-Jul-13 15:30N 38°50' E 009°22'3613.3
2018-Jul-13 12:49N 39°04' E 010°04'413.2
2018-Jul-13 12:30N 39°05' E 010°09'713.2
2018-Jul-13 12:00N 39°08' E 010°17'4384.2
2018-Jul-13 12:00N 39°06' E 010°12'1122.3 070 / 141016.7 5.4 28.025.326.0
2018-Jul-13 11:30N 39°10' E 010°25'1312.6
2018-Jul-13 10:29N 39°16' E 010°40'612.7
2018-Jul-13 10:00N 39°18' E 010°47'1312.8
2018-Jul-13 09:02N 39°23' E 011°02'112.8
2018-Jul-13 08:59N 39°23' E 011°03'913.5
2018-Jul-13 08:20N 39°27' E 011°13'613.6
2018-Jul-13 07:54N 39°29' E 011°20'615.4
2018-Jul-13 07:30N 39°32' E 011°27'1622.0
2018-Jul-13 06:45N 39°38' E 011°47'521.4
2018-Jul-13 06:30N 39°40' E 011°53'918.4
2018-Jul-13 06:00N 39°44' E 012°04'4233.4
2018-Jul-13 06:00N 39°42' E 012°00'1021.3 100 / 101016.710.8 29.319.026.5
2018-Jul-13 05:30N 39°46' E 012°12'612.9
2018-Jul-13 05:01N 39°49' E 012°20'713.0
2018-Jul-13 04:30N 39°52' E 012°28'713.1
2018-Jul-13 04:00N 39°54' E 012°36'612.9
2018-Jul-13 03:30N 39°57' E 012°43'612.9
2018-Jul-13 03:01N 39°59' E 012°51'9505.9
2018-Jul-13 03:00N 39°54' E 012°42'1530.6 120 / 21016.310.8 24.521.426.5
2018-Jul-13 02:30N 40°02' E 012°58'712.9
2018-Jul-13 01:58N 40°05' E 013°07'1412.9
2018-Jul-13 00:51N 40°10' E 013°24'513.0
2018-Jul-13 00:30N 40°12' E 013°29'713.2
2018-Jul-13 00:00N 40°15' E 013°37'713.2
2018-Jul-12 23:29N 40°17' E 013°46'713.4
2018-Jul-12 23:00N 40°20' E 013°54'713.2
2018-Jul-12 22:30N 40°23' E 014°02'713.2
2018-Jul-12 22:00N 40°25' E 014°09'713.4
2018-Jul-12 21:30N 40°28' E 014°18'713.3
2018-Jul-12 21:00N 40°29' E 014°26'612.9
2018-Jul-12 20:30N 40°31' E 014°34'713.1
2018-Jul-12 20:00N 40°36' E 014°40'2 0.1
2018-Jul-12 03:39N 40°36' E 014°43'212.2
2018-Jul-12 03:31N 40°34' E 014°43'714.8
2018-Jul-12 03:00N 40°27' E 014°44'815.4
2018-Jul-12 02:30N 40°19' E 014°44'815.9
2018-Jul-12 02:00N 40°11' E 014°46'11516.0
2018-Jul-11 18:47N 38°24' E 015°40'516.1
2018-Jul-11 18:30N 38°19' E 015°42'713.1
2018-Jul-11 17:58N 38°13' E 015°37'715.6
2018-Jul-11 17:30N 38°06' E 015°36'917.1
2018-Jul-11 17:00N 37°58' E 015°38'816.8
2018-Jul-11 16:30N 37°51' E 015°45'916.9
2018-Jul-11 16:00N 37°47' E 015°54'917.0
2018-Jul-11 15:27N 37°42' E 016°04'16217.1
2018-Jul-11 06:00N 36°54' E 019°18'29 9.8 240 / 51014.610.8 26.021.024.4
2018-Jul-11 03:00N 36°48' E 019°54'16617.8 300 / 81013.927.0 24.518.624.0
2018-Jul-10 17:40N 36°45' E 023°21'318.0
2018-Jul-10 17:30N 36°48' E 023°22'917.8
2018-Jul-10 16:59N 36°57' E 023°24'1717.7
2018-Jul-10 15:59N 37°10' E 023°39'1017.8
2018-Jul-10 15:24N 37°18' E 023°48'1417.6
2018-Jul-10 14:36N 37°28' E 024°00'2817.7
2018-Jul-10 13:00N 37°48' E 024°25'  

Dump ship's entire track history